Time;durP1;ratioP1;P1;durP2;ratioP2;P2;SDS_P1;SDS_P2;PMS_P1;PMS_P2;Temp;Humidity;BMP_temperature;BMP_pressure;BME280_temperature;BME280_humidity;BME280_pressure;Samples;Min_cycle;Max_cycle;Signal;HPM_P1;HPM_P2
2021/04/18 00:02:52;;;;;;;23.75;18.15;;;;;;;6.51;96.75;99938.76;1777001;79;28162;-65
2021/04/18 00:05:26;;;;;;;27.50;20.80;;;;;;;6.48;96.30;99945.86;1729307;82;21171;-63
2021/04/18 00:08:01;;;;;;;25.43;19.07;;;;;;;6.43;96.16;99944.34;1727234;82;21168;-66
2021/04/18 00:10:23;;;;;;;27.52;21.27;;;;;;;6.39;96.16;99943.15;1736970;82;21205;-66
2021/04/18 00:12:50;;;;;;;25.25;19.55;;;;;;;6.37;96.31;99945.75;1748727;82;21559;-64
2021/04/18 00:15:19;;;;;;;27.55;19.92;;;;;;;6.37;96.51;99943.08;1736057;82;20999;-66
2021/04/18 00:17:47;;;;;;;23.52;18.32;;;;;;;6.33;96.50;99943.22;1722310;82;21685;-62
2021/04/18 00:20:15;;;;;;;34.18;23.73;;;;;;;6.31;96.58;99953.28;1748812;82;21219;-66
2021/04/18 00:22:43;;;;;;;24.72;18.92;;;;;;;6.31;96.70;99949.27;1748740;82;21559;-63
2021/04/18 00:25:13;;;;;;;23.22;18.02;;;;;;;6.33;96.80;99940.00;1695820;82;21034;-64
2021/04/18 00:27:41;;;;;;;32.30;19.48;;;;;;;6.35;96.80;99940.61;1693362;83;21080;-63
2021/04/18 00:30:12;;;;;;;21.05;16.90;;;;;;;6.36;96.73;99945.44;1706578;83;21043;-65
2021/04/18 00:32:42;;;;;;;23.50;18.62;;;;;;;6.37;96.80;99948.42;1719081;83;22077;-64
2021/04/18 00:35:11;;;;;;;24.00;16.75;;;;;;;6.35;96.86;99947.29;1695546;83;21165;-65
2021/04/18 00:37:39;;;;;;;23.32;18.37;;;;;;;6.39;97.14;99941.81;1692215;83;21138;-65
2021/04/18 00:40:10;;;;;;;22.25;16.75;;;;;;;6.40;97.16;99943.45;1708281;83;21145;-63
2021/04/18 00:42:38;;;;;;;25.35;18.10;;;;;;;6.41;97.22;99950.95;1698024;83;21205;-64
2021/04/18 00:45:09;;;;;;;26.50;20.88;;;;;;;6.41;97.13;99950.95;1690186;84;21199;-65
2021/04/18 00:47:43;;;;;;;22.67;17.00;;;;;;;6.37;96.97;99944.41;1706641;83;21217;-64
2021/04/18 00:50:13;;;;;;;;;;;;;;;6.34;97.10;99946.16;1713215;83;21224;-66
2021/04/18 00:52:40;;;;;;;17.90;14.03;;;;;;;6.31;97.27;99930.06;1708243;83;20163;-65
2021/04/18 00:55:10;;;;;;;24.52;18.70;;;;;;;6.30;97.47;99936.95;1718942;82;21185;-64
2021/04/18 00:57:38;;;;;;;25.70;19.57;;;;;;;6.28;97.38;99939.86;1718847;83;21209;-64
2021/04/18 01:00:07;;;;;;;23.52;18.80;;;;;;;6.25;97.38;99932.77;1667058;83;21696;-65
2021/04/18 01:02:35;;;;;;;25.02;17.32;;;;;;;6.24;97.45;99930.61;1707468;83;21591;-66
2021/04/18 01:05:05;;;;;;;25.32;20.17;;;;;;;6.23;97.51;99929.00;1702137;83;21114;-66
2021/04/18 01:07:37;;;;;;;27.48;18.82;;;;;;;6.25;97.65;99920.23;1692355;83;21182;-64
2021/04/18 01:10:09;;;;;;;20.85;15.38;;;;;;;6.30;97.73;99923.08;1693802;83;21447;-64
2021/04/18 01:12:38;;;;;;;;;;;;;;;6.28;97.41;99912.33;1708083;83;21209;-65
2021/04/18 01:15:08;;;;;;;23.85;16.95;;;;;;;6.25;97.35;99915.41;1690425;84;20143;-66
2021/04/18 01:17:36;;;;;;;19.05;16.10;;;;;;;6.25;97.54;99916.23;1696363;83;21173;-67
2021/04/18 01:20:10;;;;;;;27.00;19.73;;;;;;;6.26;97.71;99918.39;1719965;83;21121;-66
2021/04/18 01:22:38;;;;;;;22.20;19.05;;;;;;;6.27;97.75;99910.17;1719339;82;22197;-66
2021/04/18 01:25:22;;;;;;;22.65;17.40;;;;;;;6.32;97.84;99899.66;1889287;75;26851;-66
2021/04/18 01:27:55;;;;;;;25.88;20.23;;;;;;;6.28;97.78;99897.13;1855401;77;21914;-66
2021/04/18 01:30:28;;;;;;;22.70;17.77;;;;;;;6.27;97.77;99896.81;1836376;77;21339;-67
2021/04/18 01:32:58;;;;;;;23.47;16.95;;;;;;;6.28;97.71;99899.80;1768390;80;21254;-66
2021/04/18 01:35:27;;;;;;;18.55;15.95;;;;;;;6.29;97.73;99898.73;1754530;80;21004;-66
2021/04/18 01:37:55;;;;;;;23.35;18.82;;;;;;;6.30;97.67;99891.55;1783324;80;20984;-66
2021/04/18 01:40:25;;;;;;;21.30;15.98;;;;;;;6.30;97.54;99892.88;1783408;80;21024;-66
2021/04/18 01:42:53;;;;;;;20.57;15.53;;;;;;;6.29;97.46;99897.40;1785342;80;22193;-66
2021/04/18 01:45:23;;;;;;;20.00;15.95;;;;;;;6.26;97.37;99890.34;1783269;80;21018;-66
2021/04/18 01:47:53;;;;;;;17.85;13.95;;;;;;;6.24;97.39;99892.40;1786432;80;21070;-65
2021/04/18 01:50:22;;;;;;;16.37;14.58;;;;;;;6.22;97.43;99889.14;1783248;80;21153;-67
2021/04/18 01:52:50;;;;;;;19.85;14.38;;;;;;;6.24;97.64;99885.21;1760620;80;21621;-65
2021/04/18 01:55:19;;;;;;;18.10;14.70;;;;;;;6.24;97.72;99891.06;1822288;78;21147;-67
2021/04/18 01:57:48;;;;;;;21.35;16.02;;;;;;;6.26;97.69;99889.83;1822333;78;21012;-67
2021/04/18 02:00:21;;;;;;;19.07;14.20;;;;;;;6.27;97.63;99883.97;1820944;78;21134;-67
2021/04/18 02:02:58;;;;;;;18.70;14.28;;;;;;;6.26;97.57;99879.66;1821614;78;21020;-67
2021/04/18 02:05:38;;;;;;;19.02;14.23;;;;;;;6.27;97.55;99867.95;1821086;77;28632;-67
2021/04/18 02:08:08;;;;;;;16.77;15.00;;;;;;;6.20;97.63;99870.66;1813064;78;20995;-68
2021/04/18 02:10:36;;;;;;;19.90;16.40;;;;;;;6.17;97.65;99876.45;1818507;78;21618;-66
2021/04/18 02:13:06;;;;;;;16.73;12.82;;;;;;;6.17;97.80;99879.11;1799106;78;21019;-66
2021/04/18 02:15:37;;;;;;;18.27;15.70;;;;;;;6.14;97.79;99876.34;1786200;78;21206;-67
2021/04/18 02:18:06;;;;;;;17.07;13.80;;;;;;;6.11;97.81;99870.63;1790784;78;21528;-65
2021/04/18 02:20:35;;;;;;;14.18;12.20;;;;;;;6.12;98.08;99872.27;1786950;80;21006;-67
2021/04/18 02:23:05;;;;;;;19.77;14.98;;;;;;;6.14;98.21;99865.66;1746695;78;22886;-66
2021/04/18 02:25:33;;;;;;;14.85;12.07;;;;;;;6.13;98.24;99868.57;1730161;81;21020;-67
2021/04/18 02:28:00;;;;;;;15.40;12.78;;;;;;;6.12;98.33;99865.08;1743384;81;20959;-66
2021/04/18 02:30:32;;;;;;;15.75;13.95;;;;;;;6.12;98.26;99869.60;1752800;81;21074;-65
2021/04/18 02:33:00;;;;;;;17.98;13.40;;;;;;;6.13;98.36;99864.05;1712600;81;21214;-66
2021/04/18 02:35:29;;;;;;;15.43;13.45;;;;;;;6.16;98.38;99854.77;1693419;84;21376;-66
2021/04/18 02:37:57;;;;;;;15.53;12.28;;;;;;;6.21;98.28;99846.93;1693341;84;21584;-65
2021/04/18 02:40:26;;;;;;;13.28;11.00;;;;;;;6.21;98.14;99841.59;1696879;81;21123;-66
2021/04/18 02:42:53;;;;;;;15.13;11.75;;;;;;;6.20;97.95;99836.45;1742052;81;21139;-65
2021/04/18 02:45:22;;;;;;;14.40;10.85;;;;;;;6.17;97.92;99836.39;1723441;83;21122;-65
2021/04/18 02:47:51;;;;;;;14.65;13.10;;;;;;;6.19;97.97;99845.53;1722656;83;21366;-65
2021/04/18 02:50:19;;;;;;;18.35;14.13;;;;;;;6.17;97.93;99834.23;1729527;81;21110;-68
2021/04/18 02:52:48;;;;;;;15.38;12.80;;;;;;;6.18;98.09;99834.54;1750110;81;21545;-65
2021/04/18 02:55:17;;;;;;;12.65;10.82;;;;;;;6.20;98.11;99831.94;1752220;81;21148;-68
2021/04/18 02:57:54;;;;;;;15.47;12.53;;;;;;;6.27;98.05;99830.05;1847084;76;27034;-66
2021/04/18 03:00:23;;;;;;;13.03;10.98;;;;;;;6.24;97.91;99825.63;1817349;79;20995;-66
2021/04/18 03:02:52;;;;;;;12.90;11.20;;;;;;;6.23;97.80;99826.69;1809004;79;21358;-67
2021/04/18 03:05:21;;;;;;;12.58;11.05;;;;;;;6.24;97.83;99825.63;1802307;79;21002;-67
2021/04/18 03:07:50;;;;;;;12.07;10.05;;;;;;;6.26;97.80;99825.73;1784627;79;21057;-66
2021/04/18 03:10:20;;;;;;;10.80;8.83;;;;;;;6.26;97.75;99824.91;1784936;80;20990;-65
2021/04/18 03:12:48;;;;;;;12.03;10.18;;;;;;;6.30;97.86;99830.93;1800887;79;20971;-66
2021/04/18 03:15:17;;;;;;;11.65;9.93;;;;;;;6.31;97.71;99825.89;1816973;79;21179;-64
2021/04/18 03:17:47;;;;;;;12.55;11.12;;;;;;;6.29;97.46;99829.29;1816852;79;21078;-65
2021/04/18 03:20:35;;;;;;;10.48;8.95;;;;;;;6.28;97.42;99835.69;1744081;82;21051;-66
2021/04/18 03:23:03;;;;;;;11.25;10.08;;;;;;;6.28;97.51;99836.20;1727490;82;21040;-66
2021/04/18 03:25:32;;;;;;;12.25;10.10;;;;;;;6.27;97.57;99830.56;1723012;83;21167;-64
2021/04/18 03:28:00;;;;;;;12.78;11.08;;;;;;;6.29;97.68;99833.81;1726616;83;22571;-63
2021/04/18 03:30:38;;;;;;;12.47;11.12;;;;;;;6.31;97.65;99831.23;1725945;83;21622;-64
2021/04/18 03:33:08;;;;;;;12.33;11.00;;;;;;;6.33;97.51;99819.80;1708469;82;21232;-66
2021/04/18 03:35:37;;;;;;;12.40;11.10;;;;;;;6.33;97.37;99819.80;1675708;83;21181;-65
2021/04/18 03:38:09;;;;;;;12.68;10.95;;;;;;;6.32;97.25;99818.19;1725980;83;21128;-66
2021/04/18 03:40:38;;;;;;;14.33;11.63;;;;;;;6.32;97.29;99818.19;1722973;83;21616;-66
2021/04/18 03:43:07;;;;;;;10.30;8.83;;;;;;;6.35;97.40;99823.08;1687248;83;21005;-65
2021/04/18 03:45:37;;;;;;;11.20;10.10;;;;;;;6.41;97.48;99822.22;1649351;87;21187;-67
2021/04/18 03:48:06;;;;;;;13.03;10.53;;;;;;;6.45;97.42;99820.73;1697272;84;21230;-65
2021/04/18 03:50:33;;;;;;;11.90;10.60;;;;;;;6.47;97.16;99822.68;1697332;84;21143;-66
2021/04/18 03:53:20;;;;;;;15.65;10.65;;;;;;;6.48;97.01;99816.27;1701649;83;22246;-65
2021/04/18 03:55:49;;;;;;;11.73;9.95;;;;;;;6.47;96.88;99820.00;1709798;83;21128;-66
2021/04/18 03:58:18;;;;;;;12.65;10.95;;;;;;;6.43;96.76;99816.63;1673817;85;21563;-65
2021/04/18 04:00:48;;;;;;;13.05;10.50;;;;;;;6.46;96.99;99821.03;1708334;83;21013;-66
2021/04/18 04:03:16;;;;;;;12.47;10.30;;;;;;;6.49;96.91;99817.91;1723373;83;21606;-67
2021/04/18 04:05:46;;;;;;;15.90;10.85;;;;;;;6.52;96.90;99823.35;1726137;83;22223;-65
2021/04/18 04:08:16;;;;;;;10.55;9.45;;;;;;;6.53;96.78;99828.97;1699071;83;21068;-64
2021/04/18 04:10:44;;;;;;;12.40;10.45;;;;;;;6.51;96.56;99817.19;1649802;85;21051;-65
2021/04/18 04:13:15;;;;;;;13.15;11.57;;;;;;;6.50;96.48;99822.23;1713921;83;21009;-66
2021/04/18 04:15:45;;;;;;;12.13;10.80;;;;;;;6.54;96.65;99826.61;1725899;83;21557;-65
2021/04/18 04:18:14;;;;;;;12.90;10.85;;;;;;;6.58;96.55;99826.45;1713369;83;21705;-65
2021/04/18 04:20:56;;;;;;;11.45;9.53;;;;;;;6.61;96.58;99820.69;1724979;83;21235;-65
2021/04/18 04:23:41;;;;;;;12.63;10.63;;;;;;;6.65;96.37;99817.87;1654823;85;21213;-65
2021/04/18 04:26:09;;;;;;;10.58;9.00;;;;;;;6.63;96.17;99808.42;1711827;83;21132;-66
2021/04/18 04:28:37;;;;;;;9.98;8.98;;;;;;;6.61;95.90;99809.18;1676052;85;21209;-68
2021/04/18 04:31:05;;;;;;;15.83;13.98;;;;;;;6.55;95.67;99804.20;1721948;83;21550;-64
2021/04/18 04:33:34;;;;;;;13.38;10.93;;;;;;;6.51;95.77;99802.49;1706066;83;21137;-66
2021/04/18 04:36:05;;;;;;;13.10;11.70;;;;;;;6.48;95.90;99800.76;1696814;84;21191;-65
2021/04/18 04:38:34;;;;;;;13.10;11.57;;;;;;;6.46;96.06;99801.00;1696858;84;21573;-67
2021/04/18 04:41:02;;;;;;;17.80;10.80;;;;;;;6.47;96.11;99799.15;1697439;83;21208;-66
2021/04/18 04:43:31;;;;;;;11.95;10.30;;;;;;;6.44;96.19;99797.72;1718267;83;21208;-66
2021/04/18 04:46:00;;;;;;;10.68;9.28;;;;;;;6.38;96.38;99789.78;1722714;83;21561;-66
2021/04/18 04:48:30;;;;;;;11.57;10.25;;;;;;;6.41;96.64;99791.49;1648025;87;21251;-67
2021/04/18 04:50:58;;;;;;;11.75;10.55;;;;;;;6.44;96.71;99791.04;1713170;83;21506;-66
2021/04/18 04:53:25;;;;;;;11.70;10.35;;;;;;;6.42;96.74;99787.79;1685950;83;21041;-71
2021/04/18 04:55:54;;;;;;;11.22;8.78;;;;;;;6.43;96.77;99789.91;1707683;83;20997;-67
2021/04/18 04:58:22;;;;;;;13.35;10.48;;;;;;;6.41;96.80;99791.49;1648669;87;21197;-67
2021/04/18 05:00:49;;;;;;;12.30;10.10;;;;;;;6.42;96.85;99783.78;1716938;83;21478;-66
2021/04/18 05:03:17;;;;;;;12.20;10.43;;;;;;;6.45;97.12;99787.86;1695943;84;21174;-65
2021/04/18 05:05:45;;;;;;;11.45;9.68;;;;;;;6.45;97.12;99785.18;1692569;84;21141;-68
2021/04/18 05:08:13;;;;;;;11.83;10.63;;;;;;;6.47;97.18;99789.80;1692608;84;21274;-68
2021/04/18 05:10:41;;;;;;;14.15;11.35;;;;;;;6.52;97.17;99791.29;1694876;83;21235;-67
2021/04/18 05:13:09;;;;;;;14.45;9.80;;;;;;;6.52;97.02;99795.30;1703458;83;21156;-69
2021/04/18 05:15:39;;;;;;;12.88;10.15;;;;;;;6.52;97.03;99792.08;1723832;83;20990;-70
2021/04/18 05:18:07;;;;;;;12.93;9.80;;;;;;;6.51;96.98;99797.16;1714340;83;21141;-67
2021/04/18 05:20:35;;;;;;;13.45;10.18;;;;;;;6.53;97.07;99788.89;1712527;82;21239;-67
2021/04/18 05:23:02;;;;;;;16.35;12.68;;;;;;;6.56;97.21;99784.47;1697327;83;21080;-64
2021/04/18 05:25:30;;;;;;;10.55;9.18;;;;;;;6.62;97.26;99781.43;1679962;84;21151;-67
2021/04/18 05:27:57;;;;;;;10.58;8.58;;;;;;;6.65;97.07;99784.47;1622217;88;21189;-68
2021/04/18 05:30:26;;;;;;;12.35;10.10;;;;;;;6.65;96.90;99778.30;1700062;83;21569;-67
2021/04/18 05:32:57;;;;;;;11.28;10.05;;;;;;;6.65;96.92;99768.43;1718563;83;21457;-69
2021/04/18 05:35:26;;;;;;;12.43;10.88;;;;;;;6.68;97.08;99761.30;1726990;83;21172;-66
2021/04/18 05:37:53;;;;;;;10.63;9.53;;;;;;;6.74;97.25;99763.60;1721240;83;21159;-67
2021/04/18 05:40:22;;;;;;;12.47;10.43;;;;;;;6.79;97.22;99762.41;1676345;84;21106;-68
2021/04/18 05:42:51;;;;;;;14.18;10.65;;;;;;;6.81;97.09;99761.13;1701342;83;21184;-68
2021/04/18 05:45:19;;;;;;;13.00;9.53;;;;;;;6.82;97.07;99759.28;1696508;83;21221;-67
2021/04/18 05:47:48;;;;;;;13.18;8.95;;;;;;;6.85;97.12;99754.33;1647223;85;21241;-67
2021/04/18 05:50:15;;;;;;;11.05;9.78;;;;;;;6.89;97.17;99754.69;1668645;86;21123;-68
2021/04/18 05:52:44;;;;;;;11.05;9.18;;;;;;;6.93;97.26;99752.67;1642856;85;21609;-67
2021/04/18 05:55:14;;;;;;;11.85;9.53;;;;;;;6.98;97.29;99749.33;1684728;84;21616;-68
2021/04/18 05:57:42;;;;;;;11.33;9.65;;;;;;;7.05;97.28;99749.26;1623863;85;21244;-69
2021/04/18 06:00:12;;;;;;;10.65;9.50;;;;;;;7.08;97.30;99746.12;1696740;84;22003;-69
2021/04/18 06:02:39;;;;;;;11.65;9.20;;;;;;;7.10;97.30;99744.84;1668997;85;21221;-70
2021/04/18 06:05:09;;;;;;;10.38;9.38;;;;;;;7.13;97.33;99748.94;1696792;84;21664;-66
2021/04/18 06:07:38;;;;;;;10.70;9.70;;;;;;;7.18;97.43;99739.20;1648858;85;21201;-66
2021/04/18 06:10:08;;;;;;;11.50;10.38;;;;;;;7.25;97.48;99734.55;1725777;83;21405;-69
2021/04/18 06:12:36;;;;;;;11.60;9.60;;;;;;;7.31;97.37;99740.34;1725006;83;21219;-67
2021/04/18 06:15:06;;;;;;;11.70;10.00;;;;;;;7.30;97.00;99728.00;1676103;85;21023;-64
2021/04/18 06:17:36;;;;;;;10.88;8.45;;;;;;;7.31;96.77;99742.20;1696776;83;21065;-64
2021/04/18 06:20:05;;;;;;;11.22;9.30;;;;;;;7.29;96.75;99740.29;1649421;85;21189;-66
2021/04/18 06:22:34;;;;;;;11.18;9.75;;;;;;;7.27;96.71;99744.52;1721934;83;21382;-68
2021/04/18 06:25:08;;;;;;;10.98;9.88;;;;;;;7.26;96.78;99742.87;1676530;85;21048;-65
2021/04/18 06:27:36;;;;;;;10.98;9.90;;;;;;;7.29;96.79;99737.61;1726262;83;21125;-66
2021/04/18 06:30:07;;;;;;;11.35;9.78;;;;;;;7.30;96.77;99732.02;1630068;84;21189;-65
2021/04/18 06:32:35;;;;;;;11.25;10.13;;;;;;;7.30;96.70;99741.90;1712776;83;21697;-65
2021/04/18 06:35:04;;;;;;;11.18;9.38;;;;;;;7.26;96.64;99737.53;1725883;83;22393;-65
2021/04/18 06:37:33;;;;;;;10.10;8.68;;;;;;;7.22;96.66;99748.39;1676372;85;21660;-66
2021/04/18 06:40:01;;;;;;;10.78;9.68;;;;;;;7.20;96.88;99755.81;1710139;83;21589;-66
2021/04/18 06:42:29;;;;;;;10.40;8.98;;;;;;;7.18;96.97;99754.42;1666075;85;21452;-66
2021/04/18 06:44:56;;;;;;;11.35;10.10;;;;;;;7.18;97.20;99767.80;1703118;83;21164;-64
2021/04/18 06:47:24;;;;;;;10.72;9.63;;;;;;;7.16;97.28;99758.65;1696710;84;21184;-68
2021/04/18 06:49:53;;;;;;;10.68;9.08;;;;;;;7.18;97.37;99754.42;1649330;85;21607;-66
2021/04/18 06:52:21;;;;;;;10.10;8.85;;;;;;;7.18;97.42;99745.88;1696676;84;21569;-67
2021/04/18 06:54:49;;;;;;;11.48;10.10;;;;;;;7.18;97.51;99738.38;1654133;85;21027;-65
2021/04/18 06:57:16;;;;;;;13.08;11.20;;;;;;;7.16;97.74;99739.93;1726050;83;21044;-66
2021/04/18 06:59:44;;;;;;;12.35;10.38;;;;;;;7.17;97.90;99737.56;1711374;83;21211;-65
2021/04/18 07:02:28;;;;;;;10.85;9.70;;;;;;;7.19;97.95;99738.16;1725727;83;21187;-67
2021/04/18 07:05:07;;;;;;;12.33;9.83;;;;;;;7.23;98.07;99737.18;1676218;85;21734;-76
2021/04/18 07:07:41;;;;;;;10.58;9.40;;;;;;;7.27;98.08;99742.36;1721720;83;21124;-66
2021/04/18 07:10:14;;;;;;;11.57;10.38;;;;;;;7.30;98.15;99734.69;1699491;81;21211;-68
2021/04/18 07:12:42;;;;;;;13.45;10.25;;;;;;;7.32;98.16;99743.84;1698682;83;21432;-69
2021/04/18 07:15:10;;;;;;;10.88;9.73;;;;;;;7.33;98.18;99740.95;1696545;84;21637;-68
2021/04/18 07:20:25;;;;;;;12.88;11.22;;;;;;;7.41;98.26;99743.80;1855494;76;28532;-69
2021/04/18 07:22:53;;;;;;;12.88;10.32;;;;;;;7.40;98.37;99751.53;1818839;77;21160;-67
2021/04/18 07:25:30;;;;;;;13.08;11.68;;;;;;;7.43;98.46;99746.53;1818484;78;21182;-69
2021/04/18 07:27:58;;;;;;;13.45;10.15;;;;;;;7.49;98.50;99752.02;1818476;78;20983;-65
2021/04/18 07:30:26;;;;;;;11.05;9.90;;;;;;;7.52;98.28;99744.89;1829354;76;21610;-68
2021/04/18 07:33:09;;;;;;;11.97;9.93;;;;;;;7.52;98.15;99747.05;1788712;77;20987;-67
2021/04/18 07:35:41;;;;;;;12.18;10.88;;;;;;;7.52;98.19;99740.36;1852603;76;21067;-67
2021/04/18 07:38:22;;;;;;;14.23;12.13;;;;;;;7.55;98.30;99739.89;1819719;77;21416;-68
2021/04/18 07:40:53;;;;;;;13.08;10.75;;;;;;;7.58;98.40;99737.30;1834707;77;21047;-69
2021/04/18 07:43:23;;;;;;;11.45;10.35;;;;;;;7.62;98.50;99737.13;1843552;77;21035;-67
2021/04/18 07:45:53;;;;;;;14.85;13.00;;;;;;;7.67;98.40;99743.95;1802885;77;21014;-67
2021/04/18 07:48:21;;;;;;;12.30;11.10;;;;;;;7.69;98.31;99745.86;1851773;77;21556;-67
2021/04/18 07:50:49;;;;;;;13.80;12.15;;;;;;;7.68;98.26;99741.02;1825176;77;21188;-69
2021/04/18 07:53:17;;;;;;;15.15;11.40;;;;;;;7.70;98.27;99734.93;1820644;77;21650;-66
2021/04/18 07:55:45;;;;;;;12.10;10.30;;;;;;;7.73;98.39;99739.81;1848136;77;21136;-68
2021/04/18 07:58:14;;;;;;;12.78;11.20;;;;;;;7.80;98.52;99740.53;1851851;77;20967;-67
2021/04/18 08:00:42;;;;;;;11.55;10.35;;;;;;;7.86;98.45;99747.63;1821074;77;21114;-69
2021/04/18 08:03:15;;;;;;;11.28;10.13;;;;;;;7.89;98.19;99741.83;1847824;77;22017;-65
2021/04/18 08:05:44;;;;;;;11.38;10.18;;;;;;;7.90;98.06;99748.00;1823064;77;21110;-66
2021/04/18 08:08:14;;;;;;;12.05;9.73;;;;;;;7.92;97.86;99739.72;1851973;77;20955;-68
2021/04/18 08:10:45;;;;;;;13.08;10.65;;;;;;;7.92;97.60;99739.72;1837309;77;21485;-68
2021/04/18 08:16:04;;;;;;;11.05;9.88;;;;;;;7.99;97.45;99740.44;1847102;76;28245;-68
2021/04/18 08:18:43;;;;;;;13.00;8.58;;;;;;;7.95;97.43;99742.77;1817263;79;20944;-69
2021/04/18 08:21:37;;;;;;;10.90;9.70;;;;;;;7.96;97.34;99743.03;1785243;79;21186;-67
2021/04/18 08:24:21;;;;;;;10.05;8.93;;;;;;;7.99;97.28;99743.11;1784729;80;20995;-67
2021/04/18 08:26:59;;;;;;;10.35;9.28;;;;;;;8.01;97.21;99745.84;1758146;80;21004;-72
2021/04/18 08:29:27;;;;;;;8.93;8.03;;;;;;;8.04;97.07;99744.58;1777054;80;21611;-69
2021/04/18 08:32:00;;;;;;;10.50;9.40;;;;;;;8.06;97.07;99745.96;1791821;79;21121;-68
2021/04/18 08:34:31;;;;;;;10.53;9.23;;;;;;;8.06;96.80;99743.28;1799198;79;21258;-71
2021/04/18 08:37:02;;;;;;;11.33;10.00;;;;;;;8.05;96.70;99751.57;1781825;80;20975;-66
2021/04/18 08:39:36;;;;;;;10.98;9.70;;;;;;;8.06;96.72;99741.13;1784907;80;21034;-69
2021/04/18 08:42:06;;;;;;;9.88;8.83;;;;;;;8.09;96.74;99742.02;1783991;80;21613;-68
2021/04/18 08:44:45;;;;;;;10.70;9.63;;;;;;;8.15;96.72;99734.41;1781201;80;21112;-67
2021/04/18 08:47:19;;;;;;;10.35;9.35;;;;;;;8.18;96.60;99733.41;1760393;80;21324;-71
2021/04/18 08:49:50;;;;;;;15.50;10.08;;;;;;;8.21;96.43;99734.27;1731648;81;21637;-69
2021/04/18 08:52:27;;;;;;;9.40;8.53;;;;;;;8.25;96.21;99737.28;1767407;80;21152;-69
2021/04/18 08:54:58;;;;;;;14.47;10.45;;;;;;;8.26;96.05;99731.70;1763550;81;21162;-69
2021/04/18 08:57:29;;;;;;;9.35;8.30;;;;;;;8.30;95.86;99737.44;1771705;80;21141;-67
2021/04/18 08:59:58;;;;;;;12.45;10.20;;;;;;;8.34;95.83;99735.95;1737686;81;21202;-66
2021/04/18 09:02:28;;;;;;;11.50;10.30;;;;;;;8.39;95.84;99733.91;1732300;82;21219;-68
2021/04/18 09:04:59;;;;;;;9.95;8.90;;;;;;;8.42;95.50;99729.40;1784708;80;21144;-67
2021/04/18 09:07:29;;;;;;;11.60;10.40;;;;;;;8.46;95.46;99735.92;1785113;80;21156;-67
2021/04/18 09:10:04;;;;;;;10.60;9.60;;;;;;;8.49;95.33;99742.16;1782526;79;21019;-67
2021/04/18 09:12:32;;;;;;;11.38;9.48;;;;;;;8.50;94.93;99742.43;1779063;80;22916;-67
2021/04/18 09:15:03;;;;;;;14.23;12.10;;;;;;;8.53;95.00;99744.66;1765897;78;21528;-66
2021/04/18 09:17:33;;;;;;;9.95;8.85;;;;;;;8.53;94.74;99750.84;1784763;80;21122;-64
2021/04/18 09:20:10;;;;;;;10.63;9.08;;;;;;;8.55;94.71;99747.91;1784812;79;21153;-67
2021/04/18 09:22:40;;;;;;;15.88;10.03;;;;;;;8.52;94.41;99750.55;1784948;80;21117;-66
2021/04/18 09:25:15;;;;;;;12.25;9.38;;;;;;;8.49;94.24;99755.02;1771578;80;21387;-66
2021/04/18 09:27:49;;;;;;;10.98;9.90;;;;;;;8.46;94.38;99739.94;1732780;82;21616;-67
2021/04/18 09:30:22;;;;;;;9.80;8.90;;;;;;;8.45;94.51;99753.04;1771262;80;21097;-67
2021/04/18 09:32:59;;;;;;;10.93;9.93;;;;;;;8.45;94.63;99759.22;1778050;80;21046;-64
2021/04/18 09:35:27;;;;;;;12.03;10.82;;;;;;;8.46;94.74;99756.84;1731586;82;21125;-68
2021/04/18 09:38:03;;;;;;;11.75;10.55;;;;;;;8.47;94.76;99759.81;1746633;80;22271;-67
2021/04/18 09:40:37;;;;;;;16.50;11.35;;;;;;;8.50;94.94;99762.02;1773133;80;21130;-71
2021/04/18 09:43:07;;;;;;;12.95;9.35;;;;;;;8.52;94.89;99763.95;1783122;79;22256;-68
2021/04/18 09:45:36;;;;;;;11.45;10.35;;;;;;;8.56;95.02;99766.44;1803300;79;21164;-68
2021/04/18 09:48:17;;;;;;;10.78;9.68;;;;;;;8.57;94.87;99764.59;1734582;81;21549;-68
2021/04/18 09:50:59;;;;;;;11.70;9.55;;;;;;;8.60;94.91;99758.73;1726457;82;21823;-67
2021/04/18 09:53:30;;;;;;;11.03;9.83;;;;;;;8.63;94.89;99758.30;1784277;80;21145;-69
2021/04/18 09:56:05;;;;;;;11.00;9.68;;;;;;;8.65;94.92;99761.01;1778956;80;21578;-66
2021/04/18 09:58:40;;;;;;;14.68;10.08;;;;;;;8.70;95.05;99759.78;1745528;80;21184;-68
2021/04/18 10:01:28;;;;;;;10.30;8.63;;;;;;;8.74;94.90;99758.77;1731526;82;21176;-67
2021/04/18 10:03:57;;;;;;;11.78;10.53;;;;;;;8.77;94.81;99756.16;1779645;80;21427;-68
2021/04/18 10:06:25;;;;;;;16.90;10.75;;;;;;;8.77;94.70;99761.00;1783821;79;21125;-66
2021/04/18 10:09:01;;;;;;;11.93;10.82;;;;;;;8.78;94.55;99767.19;1784052;80;21011;-69
2021/04/18 10:11:30;;;;;;;11.33;10.23;;;;;;;8.78;94.49;99772.55;1784220;80;21114;-68
2021/04/18 10:13:59;;;;;;;10.43;9.43;;;;;;;8.79;94.55;99766.11;1749603;82;21150;-68
2021/04/18 10:16:42;;;;;;;11.12;8.65;;;;;;;8.83;94.74;99770.77;1728233;81;21629;-68
2021/04/18 10:19:22;;;;;;;13.68;10.40;;;;;;;8.86;94.57;99768.97;1784125;80;21168;-69
2021/04/18 10:22:10;;;;;;;11.78;10.55;;;;;;;8.86;94.43;99768.97;1780097;80;21171;-66
2021/04/18 10:24:47;;;;;;;11.18;10.00;;;;;;;8.88;94.53;99776.76;1780341;80;21916;-68
2021/04/18 10:27:27;;;;;;;13.22;11.75;;;;;;;8.89;94.67;99779.73;1784717;80;21131;-68
2021/04/18 10:29:56;;;;;;;15.80;12.80;;;;;;;8.92;94.88;99777.94;1782093;80;22299;-66
2021/04/18 10:32:24;;;;;;;11.95;10.60;;;;;;;8.97;94.93;99783.41;1783131;80;21165;-65
2021/04/18 10:34:53;;;;;;;13.05;11.25;;;;;;;9.02;95.08;99786.17;1784254;80;21168;-65
2021/04/18 10:37:23;;;;;;;12.03;9.23;;;;;;;9.03;94.97;99783.78;1783860;80;21212;-66
2021/04/18 10:39:51;;;;;;;12.95;11.03;;;;;;;9.05;94.95;99789.22;1784228;80;21149;-65
2021/04/18 10:42:19;;;;;;;13.00;11.70;;;;;;;9.09;95.07;99787.69;1784189;80;21193;-66
2021/04/18 10:44:47;;;;;;;10.68;9.68;;;;;;;9.18;95.32;99783.58;1783984;80;21172;-70
2021/04/18 10:47:16;;;;;;;12.80;11.55;;;;;;;9.30;95.08;99788.09;1783891;80;21595;-63
2021/04/18 10:49:47;;;;;;;11.68;10.53;;;;;;;9.38;94.62;99787.18;1753165;81;21148;-68
2021/04/18 10:52:15;;;;;;;12.70;11.20;;;;;;;9.53;94.63;99784.78;1780478;80;21587;-66
2021/04/18 10:54:43;;;;;;;12.15;10.30;;;;;;;9.68;94.35;99778.88;1781377;80;21604;-74
2021/04/18 10:57:14;;;;;;;11.10;10.05;;;;;;;9.82;94.06;99782.06;1697486;82;21060;-70
2021/04/18 10:59:42;;;;;;;10.23;9.23;;;;;;;9.96;93.32;99772.63;1753388;80;21189;-69
2021/04/18 11:02:11;;;;;;;13.55;11.05;;;;;;;10.12;92.36;99780.42;1783597;80;21046;-71
2021/04/18 11:04:39;;;;;;;9.65;8.78;;;;;;;10.29;92.18;99774.53;1756277;80;21196;-69
2021/04/18 11:07:09;;;;;;;12.43;8.48;;;;;;;10.40;90.25;99784.38;1784199;80;21324;-71
2021/04/18 11:09:37;;;;;;;9.33;8.23;;;;;;;10.54;89.51;99788.36;1785109;80;21145;-70
2021/04/18 11:12:18;;;;;;;8.55;7.75;;;;;;;10.61;87.75;99784.12;1784364;80;21637;-74
2021/04/18 11:14:47;;;;;;;10.78;8.45;;;;;;;10.70;87.56;99778.08;1783725;80;21153;-68
2021/04/18 11:17:15;;;;;;;11.97;8.25;;;;;;;10.85;85.99;99769.39;1779865;80;21165;-64
2021/04/18 11:19:43;;;;;;;7.65;6.90;;;;;;;11.06;85.55;99778.55;1779779;80;21253;-68
2021/04/18 11:22:12;;;;;;;8.53;7.72;;;;;;;11.14;83.17;99776.75;1772659;80;21951;-67
2021/04/18 11:24:39;;;;;;;9.85;7.58;;;;;;;11.28;81.98;99772.08;1779643;80;21118;-69
2021/04/18 11:27:07;;;;;;;6.78;6.08;;;;;;;11.40;82.19;99772.48;1779617;80;21101;-70
2021/04/18 11:29:37;;;;;;;6.97;5.55;;;;;;;11.54;81.54;99769.66;1778582;80;21539;-70
2021/04/18 11:32:07;;;;;;;6.85;6.15;;;;;;;11.61;80.18;99778.34;1779564;80;21197;-72
2021/04/18 11:34:38;;;;;;;8.13;6.42;;;;;;;11.65;79.87;99773.56;1779607;80;21114;-74
2021/04/18 11:37:12;;;;;;;6.95;6.25;;;;;;;11.71;79.04;99779.26;1779731;80;21015;-75
2021/04/18 11:39:41;;;;;;;5.50;5.00;;;;;;;11.74;78.34;99772.06;1754651;80;21145;-72
2021/04/18 11:42:10;;;;;;;6.53;5.92;;;;;;;11.73;77.79;99775.82;1779798;80;21161;-73
2021/04/18 11:44:37;;;;;;;7.12;6.33;;;;;;;11.68;77.31;99783.82;1779803;80;22268;-73
2021/04/18 11:47:04;;;;;;;5.37;4.95;;;;;;;11.63;77.78;99779.73;1779563;80;21102;-71
2021/04/18 11:49:33;;;;;;;8.33;6.67;;;;;;;11.61;78.19;99783.73;1779991;80;21149;-73
2021/04/18 11:52:00;;;;;;;6.25;5.53;;;;;;;11.56;78.18;99784.48;1780703;80;21011;-69